Time;durP1;ratioP1;P1;durP2;ratioP2;P2;SDS_P1;SDS_P2;PMS_P1;PMS_P2;Temp;Humidity;BMP_temperature;BMP_pressure;BME280_temperature;BME280_humidity;BME280_pressure;Samples;Min_cycle;Max_cycle;Signal;HPM_P1;HPM_P2
2022/08/12 00:44:36;;;;;;;1.75;1.65;;;16.70;97.60;;;;;;7378591;19;20392;-76
2022/08/12 00:47:01;;;;;;;2.05;1.92;;;16.60;98.50;;;;;;7382520;19;20324;-78
2022/08/12 00:49:28;;;;;;;2.00;1.90;;;16.50;99.90;;;;;;7382196;19;20316;-78
2022/08/12 00:52:10;;;;;;;3.38;2.05;;;16.40;99.90;;;;;;7381478;19;20332;-78
2022/08/12 00:54:47;;;;;;;2.65;1.95;;;16.40;99.90;;;;;;7277796;19;2004399;-78
2022/08/12 00:57:27;;;;;;;1.90;1.80;;;16.50;99.90;;;;;;7380530;19;20336;-78
2022/08/12 00:59:57;;;;;;;2.25;2.03;;;16.40;99.90;;;;;;7381776;19;20305;-78
2022/08/12 01:02:27;;;;;;;1.95;1.75;;;16.40;99.90;;;;;;7381078;19;20335;-78
2022/08/12 01:13:18;;;;;;;1.80;1.70;;;16.30;99.90;;;;;;7381601;19;20332;-77
2022/08/12 01:15:44;;;;;;;2.53;1.88;;;16.30;99.90;;;;;;7379079;19;20320;-78
2022/08/12 01:18:11;;;;;;;2.03;1.85;;;16.30;99.90;;;;;;7381677;19;21173;-78
2022/08/12 01:20:52;;;;;;;3.17;2.00;;;16.20;99.90;;;;;;7378346;19;20995;-78
2022/08/12 01:23:35;;;;;;;1.80;1.70;;;16.20;99.90;;;;;;7381149;19;20744;-77
2022/08/12 01:26:02;;;;;;;3.17;1.90;;;16.20;99.90;;;;;;7277045;19;2004383;-77
2022/08/12 01:28:28;;;;;;;2.03;1.80;;;16.10;99.90;;;;;;7380877;19;20313;-77
2022/08/12 01:30:53;;;;;;;2.03;1.80;;;16.10;99.90;;;;;;7378613;19;20639;-78
2022/08/12 01:33:20;;;;;;;2.33;1.77;;;16.10;99.90;;;;;;7380887;19;20313;-78
2022/08/12 01:35:48;;;;;;;1.73;1.63;;;16.10;99.90;;;;;;7381379;19;20345;-78
2022/08/12 01:38:18;;;;;;;2.10;1.88;;;16.00;99.90;;;;;;7380774;19;20348;-78
2022/08/12 01:40:44;;;;;;;2.10;1.80;;;16.00;99.90;;;;;;7379484;19;20404;-77
2022/08/12 01:43:12;;;;;;;2.20;1.80;;;16.00;99.90;;;;;;7380593;19;20312;-77
2022/08/12 01:45:44;;;;;;;3.47;2.20;;;16.00;99.90;;;;;;7378857;19;20376;-78
2022/08/12 01:48:24;;;;;;;1.80;1.70;;;15.90;99.90;;;;;;7380365;19;21259;-77
2022/08/12 01:51:03;;;;;;;1.85;1.75;;;15.90;99.90;;;;;;7377636;19;20845;-78
2022/08/12 01:53:56;;;;;;;2.03;1.90;;;15.90;99.90;;;;;;7276916;19;2004532;-78
2022/08/12 01:56:23;;;;;;;1.98;1.80;;;15.90;99.90;;;;;;7377137;19;20335;-77
2022/08/12 02:01:33;;;;;;;2.25;2.05;;;15.90;99.90;;;;;;7276258;19;2004323;-77
2022/08/12 02:13:08;;;;;;;2.10;1.90;;;15.50;99.90;;;;;;7277526;19;2004794;-77
2022/08/12 02:15:47;;;;;;;2.10;1.90;;;15.50;99.90;;;;;;7378199;19;20360;-78
2022/08/12 02:18:25;;;;;;;1.92;1.83;;;15.50;99.90;;;;;;7379215;19;20656;-77
2022/08/12 02:21:19;;;;;;;2.67;2.00;;;15.50;99.90;;;;;;7377265;19;20301;-77
2022/08/12 02:23:45;;;;;;;2.22;2.03;;;15.50;99.90;;;;;;7276037;19;2004355;-77
2022/08/12 02:26:10;;;;;;;2.25;2.05;;;15.50;99.90;;;;;;7378229;19;20333;-77
2022/08/12 02:28:36;;;;;;;2.17;2.00;;;15.50;99.90;;;;;;7378274;19;20996;-77
2022/08/12 02:31:03;;;;;;;2.22;2.10;;;15.40;99.90;;;;;;7378628;19;20345;-77
2022/08/12 02:33:30;;;;;;;2.50;2.30;;;15.30;99.90;;;;;;7377778;19;20305;-77
2022/08/12 02:35:56;;;;;;;2.20;2.00;;;15.20;99.90;;;;;;7376597;19;20388;-78
2022/08/12 02:38:21;;;;;;;2.23;2.00;;;15.30;99.90;;;;;;7378554;19;20376;-77
2022/08/12 02:40:47;;;;;;;2.83;2.00;;;15.20;99.90;;;;;;7376214;19;20336;-77
2022/08/12 02:43:34;;;;;;;2.47;2.00;;;15.20;99.90;;;;;;7378419;19;21227;-77
2022/08/12 02:46:07;;;;;;;2.50;2.30;;;15.20;99.90;;;;;;7275154;19;2004912;-77
2022/08/12 02:48:39;;;;;;;2.00;1.90;;;15.20;99.90;;;;;;7378047;19;20309;-77
2022/08/12 02:51:06;;;;;;;2.10;2.00;;;15.20;99.90;;;;;;7376065;19;20344;-77
2022/08/12 02:53:33;;;;;;;2.20;2.00;;;15.20;99.90;;;;;;7378361;19;20358;-77
2022/08/12 02:56:01;;;;;;;2.03;1.90;;;15.20;99.90;;;;;;7379076;19;21011;-77
2022/08/12 02:58:27;;;;;;;2.35;2.00;;;15.30;99.90;;;;;;7378211;19;20305;-76
2022/08/12 03:00:52;;;;;;;2.20;2.03;;;15.30;99.90;;;;;;7375642;19;20316;-77
2022/08/12 03:03:18;;;;;;;4.82;2.45;;;15.20;99.90;;;;;;7378297;19;20324;-78
2022/08/12 03:05:47;;;;;;;2.87;2.67;;;15.20;99.90;;;;;;7377154;19;20735;-77
2022/08/12 03:08:14;;;;;;;3.17;2.28;;;15.10;99.90;;;;;;7377100;19;20349;-77
2022/08/12 03:10:42;;;;;;;2.30;2.10;;;15.00;99.90;;;;;;7375172;19;20730;-77
2022/08/12 03:13:08;;;;;;;2.53;2.33;;;14.90;99.90;;;;;;7378455;19;20422;-77
2022/08/12 03:15:34;;;;;;;2.33;2.13;;;14.80;99.90;;;;;;7375801;19;20354;-77
2022/08/12 03:18:39;;;;;;;2.03;1.92;;;14.80;99.90;;;;;;7376641;19;20711;-77
2022/08/12 03:21:04;;;;;;;2.15;1.98;;;14.80;99.90;;;;;;7269928;19;2005871;-77
2022/08/12 03:23:30;;;;;;;2.00;1.90;;;14.80;99.90;;;;;;7374108;19;20313;-77
2022/08/12 03:25:57;;;;;;;2.10;1.90;;;14.80;99.90;;;;;;7366259;19;20336;-77
2022/08/12 03:31:08;;;;;;;3.30;2.53;;;14.70;99.90;;;;;;7270414;19;2004903;-76
2022/08/12 03:33:36;;;;;;;2.33;2.13;;;14.70;99.90;;;;;;7376127;19;20506;-77
2022/08/12 03:36:03;;;;;;;2.33;2.13;;;14.70;99.90;;;;;;7373861;19;20317;-78
2022/08/12 03:38:29;;;;;;;2.22;2.03;;;14.60;99.90;;;;;;7376936;19;20342;-77
2022/08/12 04:01:04;;;;;;;11.82;2.88;;;14.60;99.90;;;;;;7278214;19;2004527;-77
2022/08/12 04:06:17;;;;;;;3.87;2.50;;;14.60;99.90;;;;;;7383411;19;20344;-77
2022/08/12 04:08:43;;;;;;;2.50;2.30;;;14.60;99.90;;;;;;7380525;19;20345;-77
2022/08/12 04:13:52;;;;;;;2.70;2.00;;;14.60;99.90;;;;;;7383697;19;20387;-77
2022/08/12 04:16:18;;;;;;;2.50;2.30;;;14.60;99.90;;;;;;7382161;19;20415;-77
2022/08/12 04:18:44;;;;;;;2.10;2.00;;;14.60;99.90;;;;;;7379865;19;20345;-77
2022/08/12 04:21:09;;;;;;;2.50;2.30;;;14.60;99.90;;;;;;7376855;19;20393;-77
2022/08/12 04:23:37;;;;;;;2.53;2.33;;;14.60;99.90;;;;;;7378188;19;20336;-77
2022/08/12 04:26:06;;;;;;;4.30;2.08;;;14.60;99.90;;;;;;7377797;19;20311;-77
2022/08/12 04:28:31;;;;;;;2.40;2.20;;;14.50;99.90;;;;;;7378075;19;20934;-77
2022/08/12 04:30:57;;;;;;;2.42;2.22;;;14.50;99.90;;;;;;7375258;19;20388;-77
2022/08/12 04:33:25;;;;;;;2.57;2.37;;;14.50;99.90;;;;;;7383545;19;20304;-77
2022/08/12 04:35:51;;;;;;;2.75;2.28;;;14.40;99.90;;;;;;7382620;19;20305;-77
2022/08/12 04:38:17;;;;;;;2.37;2.17;;;14.50;99.90;;;;;;7381790;19;20341;-77
2022/08/12 04:40:44;;;;;;;2.92;2.40;;;14.50;99.90;;;;;;7379058;19;20315;-77
2022/08/12 04:43:10;;;;;;;2.53;2.22;;;14.50;99.90;;;;;;7382287;19;20906;-77
2022/08/12 04:45:36;;;;;;;4.53;2.30;;;14.50;99.90;;;;;;7380338;19;20309;-78
2022/08/12 04:48:03;;;;;;;2.17;1.98;;;14.50;99.90;;;;;;7381383;19;20313;-77
2022/08/12 04:50:29;;;;;;;2.80;2.60;;;14.60;99.90;;;;;;7379099;19;20342;-77
2022/08/12 04:53:01;;;;;;;3.58;2.13;;;14.60;99.90;;;;;;7380990;19;20313;-77
2022/08/12 04:55:26;;;;;;;2.45;2.25;;;14.70;99.90;;;;;;7380194;19;20854;-77
2022/08/12 04:57:53;;;;;;;2.70;2.50;;;14.80;99.90;;;;;;7381290;19;20341;-76
2022/08/12 05:00:19;;;;;;;3.08;2.10;;;14.90;99.90;;;;;;7377064;19;20341;-77
2022/08/12 05:02:44;;;;;;;2.50;2.30;;;14.90;99.90;;;;;;7379852;19;20345;-77
2022/08/12 05:05:23;;;;;;;2.65;2.20;;;15.00;99.90;;;;;;7384474;19;20405;-77
2022/08/12 05:07:49;;;;;;;2.22;2.03;;;15.10;99.90;;;;;;7380234;19;20359;-78
2022/08/12 05:10:16;;;;;;;2.20;2.00;;;15.20;99.90;;;;;;7381310;19;20341;-77
2022/08/12 05:12:44;;;;;;;2.67;2.17;;;15.30;99.90;;;;;;7379976;19;20349;-77
2022/08/12 05:15:12;;;;;;;2.50;2.30;;;15.40;99.90;;;;;;7376517;19;20344;-77
2022/08/12 05:17:39;;;;;;;2.83;2.53;;;15.50;99.90;;;;;;7381427;19;20324;-77
2022/08/12 05:20:06;;;;;;;3.65;2.33;;;15.60;99.90;;;;;;7380013;19;20329;-77
2022/08/12 05:22:32;;;;;;;2.72;2.10;;;15.70;99.90;;;;;;7380499;19;20316;-77
2022/08/12 05:24:58;;;;;;;2.40;2.20;;;15.80;99.90;;;;;;7379824;19;20309;-77
2022/08/12 05:27:24;;;;;;;3.78;2.40;;;15.90;99.90;;;;;;7379242;19;20313;-77
2022/08/12 05:29:50;;;;;;;2.72;2.53;;;16.00;99.90;;;;;;7379272;19;20327;-77
2022/08/12 05:32:19;;;;;;;3.55;2.70;;;16.00;99.90;;;;;;7378625;19;20357;-77
2022/08/12 05:34:47;;;;;;;2.60;2.40;;;16.10;99.90;;;;;;7381096;19;20433;-78
2022/08/12 05:37:13;;;;;;;2.58;2.38;;;16.20;99.90;;;;;;7376464;19;20328;-76
2022/08/12 05:39:39;;;;;;;3.43;2.47;;;16.30;99.90;;;;;;7378760;19;20359;-77
2022/08/12 05:42:05;;;;;;;4.20;2.38;;;16.40;99.90;;;;;;7381180;19;20344;-77
2022/08/12 05:44:30;;;;;;;4.83;2.50;;;16.50;99.90;;;;;;7380871;19;20409;-77
2022/08/12 05:46:57;;;;;;;6.13;2.63;;;16.60;99.90;;;;;;7379638;19;20313;-77
2022/08/12 05:49:23;;;;;;;2.47;2.28;;;16.70;99.90;;;;;;7379298;19;20348;-77
2022/08/12 05:51:48;;;;;;;3.05;2.33;;;16.80;99.90;;;;;;7380583;19;20782;-76
2022/08/12 05:54:15;;;;;;;2.40;2.20;;;16.90;99.90;;;;;;7380489;19;20320;-77
2022/08/12 05:56:40;;;;;;;3.25;2.45;;;17.00;99.90;;;;;;7378845;19;20345;-77
2022/08/12 05:59:06;;;;;;;3.95;2.60;;;17.20;99.90;;;;;;7377517;19;20860;-77
2022/08/12 06:01:32;;;;;;;2.88;2.60;;;17.30;99.90;;;;;;7380077;19;20331;-77
2022/08/12 06:03:59;;;;;;;2.60;2.40;;;17.40;99.90;;;;;;7382020;19;20300;-76
2022/08/12 06:06:24;;;;;;;2.93;2.20;;;17.60;99.90;;;;;;7381404;19;20331;-77
2022/08/12 06:08:52;;;;;;;3.15;2.47;;;17.70;99.90;;;;;;7381610;19;20358;-77
2022/08/12 06:11:21;;;;;;;2.50;2.30;;;17.90;99.90;;;;;;7375753;19;20344;-77
2022/08/12 06:13:47;;;;;;;2.55;2.08;;;17.90;99.90;;;;;;7383502;19;20356;-77
2022/08/12 06:16:14;;;;;;;2.33;2.13;;;18.10;99.90;;;;;;7379377;19;20676;-77
2022/08/12 06:18:40;;;;;;;2.58;1.92;;;18.20;99.90;;;;;;7380330;19;20865;-77
2022/08/12 06:21:13;;;;;;;2.17;1.97;;;18.30;99.90;;;;;;7379040;19;20411;-77
2022/08/12 06:23:39;;;;;;;3.10;2.00;;;18.50;99.90;;;;;;7379111;19;20327;-77
2022/08/12 06:26:06;;;;;;;3.27;2.20;;;18.70;99.90;;;;;;7380182;19;20320;-77
2022/08/12 06:28:32;;;;;;;3.13;2.30;;;18.90;99.90;;;;;;7379537;19;20327;-77
2022/08/12 06:30:58;;;;;;;1.77;1.67;;;18.90;99.90;;;;;;7378082;19;20301;-78
2022/08/12 06:33:23;;;;;;;3.45;2.10;;;19.00;99.90;;;;;;7361459;19;20327;-78
2022/08/12 06:35:50;;;;;;;4.47;1.98;;;19.20;99.90;;;;;;7379839;19;20347;-78
2022/08/12 06:38:20;;;;;;;1.85;1.73;;;19.40;99.90;;;;;;7378610;19;20327;-77
2022/08/12 06:43:31;;;;;;;3.20;1.93;;;19.60;99.90;;;;;;7276168;19;2004332;-77
2022/08/12 06:45:57;;;;;;;2.00;1.80;;;19.70;99.90;;;;;;7379267;19;20953;-76
2022/08/12 06:48:26;;;;;;;3.65;1.92;;;19.90;99.90;;;;;;7379246;19;20706;-78
2022/08/12 06:50:53;;;;;;;3.22;1.90;;;20.00;99.90;;;;;;7377871;19;20366;-77
2022/08/12 06:53:18;;;;;;;2.42;2.10;;;20.20;99.90;;;;;;7379531;19;20308;-77
2022/08/12 06:55:44;;;;;;;2.13;1.90;;;20.30;99.90;;;;;;7377001;19;20305;-78
2022/08/12 06:58:10;;;;;;;2.28;2.00;;;20.40;99.90;;;;;;7376281;19;20888;-77
2022/08/12 07:00:36;;;;;;;2.37;1.70;;;20.60;99.90;;;;;;7376563;19;21025;-77
2022/08/12 07:03:02;;;;;;;3.05;2.10;;;20.80;99.90;;;;;;7378612;19;20301;-77
2022/08/12 07:05:28;;;;;;;1.80;1.70;;;20.90;99.90;;;;;;7377682;19;20725;-78
2022/08/12 07:07:54;;;;;;;2.85;1.80;;;21.00;99.90;;;;;;7379382;19;20313;-78
2022/08/12 07:10:23;;;;;;;2.60;1.98;;;21.20;99.90;;;;;;7380283;19;20357;-77
2022/08/12 07:12:53;;;;;;;4.28;2.00;;;21.30;99.90;;;;;;7378643;19;21318;-77
2022/08/12 07:15:23;;;;;;;2.80;2.20;;;21.60;99.90;;;;;;7376554;19;21402;-77
2022/08/12 07:17:59;;;;;;;3.57;2.07;;;21.70;99.90;;;;;;7378747;19;20359;-77
2022/08/12 07:20:28;;;;;;;1.60;1.50;;;21.70;99.90;;;;;;7376859;19;20899;-75
2022/08/12 07:22:54;;;;;;;1.80;1.70;;;21.80;99.90;;;;;;7378667;19;20384;-76
2022/08/12 07:25:33;;;;;;;3.60;1.70;;;21.90;99.90;;;;;;7374026;19;20352;-75
2022/08/12 07:28:03;;;;;;;3.13;1.77;;;22.00;99.90;;;;;;7377818;19;20479;-75
2022/08/12 07:30:33;;;;;;;2.53;1.60;;;22.00;99.90;;;;;;7376531;19;20300;-75
2022/08/12 07:33:00;;;;;;;3.53;1.80;;;22.00;99.90;;;;;;7375745;19;20424;-76
2022/08/12 07:35:27;;;;;;;2.80;1.60;;;22.00;99.90;;;;;;7377127;19;21112;-77
2022/08/12 07:37:52;;;;;;;3.00;1.85;;;22.20;99.90;;;;;;7376916;19;20741;-77
2022/08/12 07:40:18;;;;;;;2.10;1.60;;;22.30;99.90;;;;;;7376387;19;20395;-76
2022/08/12 07:42:44;;;;;;;2.50;1.85;;;22.50;99.90;;;;;;7374701;19;20851;-76
2022/08/12 07:45:11;;;;;;;2.47;1.80;;;22.80;99.90;;;;;;7367783;19;20424;-76
2022/08/12 07:47:36;;;;;;;2.50;1.83;;;22.80;99.90;;;;;;7369357;19;20361;-76
2022/08/12 07:50:03;;;;;;;2.90;1.70;;;22.80;99.90;;;;;;7367187;19;20713;-76
2022/08/12 07:52:29;;;;;;;1.60;1.50;;;22.90;99.90;;;;;;7370996;19;20608;-75
2022/08/12 07:54:55;;;;;;;1.75;1.65;;;23.10;99.90;;;;;;7370131;19;20349;-76
2022/08/12 07:57:20;;;;;;;2.40;1.93;;;23.20;99.90;;;;;;7371851;19;20317;-75
2022/08/12 07:59:46;;;;;;;2.40;1.70;;;23.30;99.90;;;;;;7372610;19;20359;-76
2022/08/12 08:02:11;;;;;;;2.50;1.90;;;23.40;99.90;;;;;;7372487;19;20320;-76
2022/08/12 08:04:55;;;;;;;1.50;1.40;;;23.50;99.90;;;;;;7373727;19;20969;-76
2022/08/12 08:07:21;;;;;;;2.63;2.10;;;23.70;99.90;;;;;;7373725;19;20297;-76
2022/08/12 08:09:47;;;;;;;2.60;1.83;;;23.90;99.90;;;;;;7373260;19;21042;-76
2022/08/12 08:14:57;;;;;;;1.70;1.60;;;23.90;99.90;;;;;;7374665;19;20360;-77
2022/08/12 08:17:24;;;;;;;1.80;1.70;;;24.00;99.90;;;;;;7375606;19;20297;-76
2022/08/12 08:19:51;;;;;;;2.80;1.80;;;24.10;99.90;;;;;;7371794;19;20356;-76
2022/08/12 08:22:22;;;;;;;2.30;1.73;;;24.20;99.90;;;;;;7375648;19;20356;-76
2022/08/12 08:24:57;;;;;;;2.45;1.58;;;24.30;99.90;;;;;;7372017;19;20356;-76
2022/08/12 08:27:23;;;;;;;2.30;1.60;;;24.50;99.90;;;;;;7374201;19;20322;-76
2022/08/12 08:29:48;;;;;;;2.33;1.83;;;24.70;99.90;;;;;;7371720;19;20372;-76
2022/08/12 08:32:14;;;;;;;2.60;1.60;;;24.90;99.90;;;;;;7373113;19;20353;-76
2022/08/12 08:34:40;;;;;;;1.87;1.50;;;25.20;99.90;;;;;;7375906;19;20840;-76
2022/08/12 08:37:06;;;;;;;2.30;1.85;;;25.30;99.90;;;;;;7382001;19;20317;-76
2022/08/12 08:39:32;;;;;;;2.03;1.80;;;25.50;99.90;;;;;;7381992;19;20337;-76
2022/08/12 08:44:42;;;;;;;1.77;1.67;;;25.60;99.50;;;;;;7281633;19;2004490;-76
2022/08/12 08:47:09;;;;;;;4.00;1.70;;;25.70;99.40;;;;;;7382992;19;20304;-76
2022/08/12 08:49:35;;;;;;;1.83;1.70;;;25.60;99.40;;;;;;7380263;19;20357;-76
2022/08/12 08:52:02;;;;;;;1.60;1.50;;;25.70;97.80;;;;;;7383453;19;20349;-76
2022/08/12 08:54:32;;;;;;;2.58;1.60;;;25.80;97.30;;;;;;7381061;19;21280;-76
2022/08/12 08:56:58;;;;;;;2.70;1.50;;;26.00;97.00;;;;;;7382575;19;21354;-76
2022/08/12 08:59:23;;;;;;;2.03;1.47;;;26.30;97.10;;;;;;7381576;19;20324;-75
2022/08/12 09:01:49;;;;;;;2.50;1.40;;;26.50;96.90;;;;;;7382475;19;20332;-76
2022/08/12 09:04:14;;;;;;;1.70;1.60;;;26.70;95.00;;;;;;7383874;19;20331;-76
2022/08/12 09:06:40;;;;;;;1.85;1.60;;;26.70;94.70;;;;;;7381821;19;20722;-77
2022/08/12 09:09:09;;;;;;;1.70;1.40;;;26.30;93.70;;;;;;7382008;19;20317;-76
2022/08/12 09:14:19;;;;;;;1.47;1.30;;;26.50;93.70;;;;;;7383611;19;20327;-77
2022/08/12 09:16:44;;;;;;;1.17;1.10;;;26.70;94.00;;;;;;7379434;19;20344;-76
2022/08/12 09:19:12;;;;;;;1.52;1.30;;;26.60;94.00;;;;;;7380822;19;20980;-76
2022/08/12 09:21:39;;;;;;;1.60;1.50;;;26.70;92.90;;;;;;7383299;19;20305;-76
2022/08/12 09:24:06;;;;;;;1.50;1.40;;;26.70;93.00;;;;;;7382547;19;20304;-76
2022/08/12 09:26:35;;;;;;;2.28;1.40;;;26.70;93.10;;;;;;7383103;19;20371;-76
2022/08/12 09:29:01;;;;;;;10.23;1.50;;;26.90;93.00;;;;;;7381158;19;20296;-76
2022/08/12 09:31:26;;;;;;;1.57;1.47;;;26.90;91.90;;;;;;7381969;19;20705;-77
2022/08/12 09:33:53;;;;;;;1.37;1.27;;;27.10;91.50;;;;;;7381222;19;20399;-76
2022/08/12 09:36:20;;;;;;;2.30;1.30;;;27.10;91.10;;;;;;7382748;19;20338;-76
2022/08/12 09:38:45;;;;;;;1.35;1.23;;;27.10;91.40;;;;;;7382563;19;21248;-76
2022/08/12 09:41:14;;;;;;;2.13;1.50;;;27.10;90.70;;;;;;7380301;19;20332;-76
2022/08/12 09:46:27;;;;;;;4.60;1.40;;;27.30;91.00;;;;;;7378968;19;20325;-76
2022/08/12 09:48:52;;;;;;;1.27;1.17;;;27.30;90.00;;;;;;7381707;19;20321;-76
2022/08/12 09:51:19;;;;;;;2.50;1.17;;;27.40;89.90;;;;;;7380416;19;20301;-76
2022/08/12 09:53:45;;;;;;;1.35;1.25;;;27.60;90.20;;;;;;7382203;19;20316;-76
2022/08/12 09:56:12;;;;;;;3.55;1.40;;;27.90;90.00;;;;;;7380066;19;21196;-76
2022/08/12 09:58:40;;;;;;;2.10;1.45;;;28.00;88.90;;;;;;7380419;19;20681;-76
2022/08/12 10:01:06;;;;;;;1.10;1.10;;;27.90;85.10;;;;;;7379775;19;20833;-75
2022/08/12 10:03:32;;;;;;;2.10;1.30;;;28.10;90.10;;;;;;7383825;19;20332;-75
2022/08/12 10:05:58;;;;;;;1.20;1.20;;;28.30;86.90;;;;;;7377749;19;20400;-76
2022/08/12 10:08:29;;;;;;;3.63;1.90;;;28.40;85.80;;;;;;7380533;19;20303;-75
2022/08/12 10:13:41;;;;;;;1.45;1.35;;;28.10;86.00;;;;;;7279051;19;2004338;-74
2022/08/12 10:16:20;;;;;;;2.90;1.40;;;28.50;85.60;;;;;;7377720;19;20337;-76
2022/08/12 10:18:48;;;;;;;2.28;1.40;;;28.80;84.40;;;;;;7380116;19;20353;-76
2022/08/12 10:21:19;;;;;;;2.97;1.40;;;28.80;84.30;;;;;;7382094;19;20304;-76
2022/08/12 10:23:46;;;;;;;1.38;1.27;;;29.00;85.60;;;;;;7379945;19;20344;-77
2022/08/12 10:31:44;;;;;;;1.38;1.27;;;29.70;79.10;;;;;;7276497;19;2004351;-76
2022/08/12 10:34:12;;;;;;;1.30;1.30;;;30.20;79.70;;;;;;7379348;19;20323;-78
2022/08/12 10:36:38;;;;;;;2.60;1.40;;;30.50;77.80;;;;;;7378459;19;20312;-77
2022/08/12 10:39:05;;;;;;;1.42;1.30;;;30.70;76.30;;;;;;7381092;19;20349;-77
2022/08/12 10:44:14;;;;;;;1.33;1.17;;;31.20;73.30;;;;;;7277866;19;2004503;-77
2022/08/12 10:46:41;;;;;;;1.30;1.20;;;31.40;71.10;;;;;;7378395;19;20329;-76
2022/08/12 10:49:06;;;;;;;1.10;1.10;;;31.20;69.10;;;;;;7379442;19;20316;-76
2022/08/12 10:51:32;;;;;;;1.17;1.10;;;31.60;70.30;;;;;;7381533;19;20665;-77
2022/08/12 10:53:58;;;;;;;1.17;1.10;;;31.10;66.90;;;;;;7381732;19;20389;-77
2022/08/12 10:56:23;;;;;;;1.50;1.40;;;30.80;68.10;;;;;;7381239;19;20319;-77
2022/08/12 10:58:49;;;;;;;1.10;1.00;;;30.50;67.10;;;;;;7379030;19;20363;-77
2022/08/12 11:01:15;;;;;;;1.23;1.13;;;30.60;68.70;;;;;;7377826;19;20837;-77
2022/08/12 11:03:40;;;;;;;2.20;1.30;;;30.90;68.50;;;;;;7379831;19;20312;-78
2022/08/12 11:06:07;;;;;;;1.23;1.13;;;31.00;67.10;;;;;;7377000;19;20304;-77
2022/08/12 11:08:33;;;;;;;1.40;1.30;;;30.90;66.50;;;;;;7380083;19;20325;-76
2022/08/12 11:10:59;;;;;;;1.20;1.20;;;31.30;69.60;;;;;;7377781;19;20317;-76
2022/08/12 11:13:25;;;;;;;2.00;1.30;;;31.20;64.60;;;;;;7379535;19;20338;-77
2022/08/12 11:15:52;;;;;;;1.33;1.23;;;31.00;65.60;;;;;;7374340;19;20348;-76
2022/08/12 11:18:18;;;;;;;1.30;1.25;;;31.10;66.60;;;;;;7379278;19;20355;-77
2022/08/12 11:20:43;;;;;;;1.27;1.17;;;31.40;67.30;;;;;;7379666;19;20320;-76
2022/08/12 11:23:09;;;;;;;1.30;1.20;;;31.20;66.40;;;;;;7377725;19;20316;-76
2022/08/12 11:25:34;;;;;;;1.20;1.20;;;31.60;67.90;;;;;;7375229;19;20319;-76
2022/08/12 11:28:00;;;;;;;1.20;1.20;;;32.00;66.10;;;;;;7377807;19;20351;-76
2022/08/12 11:30:25;;;;;;;1.27;1.20;;;32.10;66.40;;;;;;7376704;19;20301;-76
2022/08/12 11:32:51;;;;;;;1.67;1.35;;;32.50;66.50;;;;;;7379003;19;20873;-76
2022/08/12 11:35:17;;;;;;;1.23;1.23;;;32.80;63.00;;;;;;7378316;19;20346;-77
2022/08/12 11:37:42;;;;;;;1.85;1.50;;;33.20;65.20;;;;;;7379381;19;20324;-77
2022/08/12 11:40:08;;;;;;;1.20;1.20;;;33.20;62.80;;;;;;7377889;19;20313;-77
2022/08/12 11:42:34;;;;;;;1.30;1.20;;;33.30;62.90;;;;;;7379821;19;20312;-77
2022/08/12 11:45:00;;;;;;;1.38;1.27;;;33.30;63.20;;;;;;7375896;19;20324;-77
2022/08/12 11:47:26;;;;;;;1.43;1.30;;;33.40;62.70;;;;;;7377041;19;20300;-78
2022/08/12 11:49:51;;;;;;;1.40;1.20;;;33.50;62.10;;;;;;7376427;19;20304;-78
2022/08/12 11:52:17;;;;;;;1.40;1.20;;;33.30;59.80;;;;;;7375862;19;20324;-77
2022/08/12 11:54:42;;;;;;;2.08;1.40;;;33.30;59.30;;;;;;7376127;19;20340;-76
2022/08/12 11:57:08;;;;;;;1.38;1.05;;;32.90;61.60;;;;;;7377026;19;20365;-75
2022/08/12 11:59:34;;;;;;;1.00;1.00;;;32.80;61.10;;;;;;7378330;19;20333;-78
2022/08/12 12:01:59;;;;;;;1.30;1.20;;;32.90;61.10;;;;;;7377690;19;21180;-77
2022/08/12 12:04:25;;;;;;;1.10;1.10;;;32.90;59.30;;;;;;7373655;19;20356;-77
2022/08/12 12:06:50;;;;;;;1.63;1.20;;;32.70;59.60;;;;;;7377728;19;20410;-76
2022/08/12 12:09:16;;;;;;;1.20;1.10;;;32.40;60.80;;;;;;7371220;19;21160;-76
2022/08/12 12:11:42;;;;;;;1.23;1.10;;;32.70;60.70;;;;;;7382133;19;20328;-76
2022/08/12 12:14:08;;;;;;;1.25;1.15;;;33.00;61.10;;;;;;7383646;19;20910;-76
2022/08/12 12:16:34;;;;;;;1.20;1.20;;;33.20;60.90;;;;;;7384878;19;20312;-76
2022/08/12 12:19:00;;;;;;;2.25;1.50;;;33.30;59.60;;;;;;7385115;19;20323;-77
2022/08/12 12:21:26;;;;;;;1.67;1.50;;;33.30;58.20;;;;;;7383577;19;20317;-76
2022/08/12 12:23:53;;;;;;;1.50;1.30;;;33.10;60.50;;;;;;7381481;19;20869;-76
2022/08/12 12:26:18;;;;;;;2.10;1.25;;;33.30;59.60;;;;;;7380557;19;21067;-78
2022/08/12 12:28:44;;;;;;;1.50;1.40;;;33.60;60.20;;;;;;7382535;19;20343;-77
2022/08/12 12:31:09;;;;;;;1.60;1.50;;;33.70;57.10;;;;;;7382766;19;20328;-76
2022/08/12 12:33:35;;;;;;;1.67;1.50;;;33.20;56.20;;;;;;7380423;19;20336;-76
2022/08/12 12:36:01;;;;;;;1.40;1.30;;;33.70;59.00;;;;;;7383119;19;20529;-77
2022/08/12 12:38:26;;;;;;;1.50;1.40;;;34.00;58.10;;;;;;7384709;19;20297;-76
2022/08/12 12:40:52;;;;;;;1.40;1.30;;;33.90;57.10;;;;;;7382203;19;20320;-77
2022/08/12 12:43:17;;;;;;;1.30;1.30;;;33.90;57.00;;;;;;7383970;19;20305;-77
2022/08/12 12:45:43;;;;;;;1.53;1.43;;;34.30;57.50;;;;;;7380673;19;21209;-76
2022/08/12 12:48:14;;;;;;;1.50;1.40;;;34.80;57.90;;;;;;7383870;19;20319;-77
2022/08/12 12:50:41;;;;;;;2.83;1.70;;;34.70;55.70;;;;;;7381755;19;20329;-76
2022/08/12 12:53:11;;;;;;;1.30;1.20;;;35.00;58.10;;;;;;7383893;19;20297;-76
2022/08/12 12:55:37;;;;;;;1.50;1.40;;;35.00;56.00;;;;;;7380534;19;20312;-77
2022/08/12 12:58:10;;;;;;;1.70;1.50;;;35.10;53.60;;;;;;7380956;19;20314;-77
2022/08/12 13:00:35;;;;;;;2.28;1.52;;;34.80;53.40;;;;;;7382788;19;20297;-77
2022/08/12 13:03:01;;;;;;;1.90;1.30;;;35.10;55.70;;;;;;7382445;19;20297;-77
2022/08/12 13:05:28;;;;;;;2.13;1.50;;;35.20;52.80;;;;;;7380211;19;20324;-76
2022/08/12 13:07:55;;;;;;;1.60;1.50;;;35.40;54.10;;;;;;7382463;19;20411;-76
2022/08/12 13:10:22;;;;;;;1.40;1.30;;;35.60;52.40;;;;;;7383062;19;20338;-77
2022/08/12 13:12:48;;;;;;;2.23;1.43;;;35.30;51.40;;;;;;7383008;19;20478;-77
2022/08/12 13:15:14;;;;;;;1.40;1.30;;;35.90;54.50;;;;;;7379460;19;20412;-77
2022/08/12 13:17:46;;;;;;;1.40;1.30;;;36.00;54.10;;;;;;7381442;19;20312;-77
2022/08/12 13:20:12;;;;;;;2.50;1.40;;;36.80;55.20;;;;;;7379321;19;20312;-77
2022/08/12 13:22:38;;;;;;;1.40;1.30;;;36.20;52.20;;;;;;7381854;19;20361;-77
2022/08/12 13:25:04;;;;;;;1.42;1.33;;;36.90;51.30;;;;;;7379043;19;20348;-77
2022/08/12 13:27:34;;;;;;;2.42;1.30;;;37.30;50.00;;;;;;7384082;19;20378;-76
2022/08/12 13:30:02;;;;;;;1.55;1.40;;;37.10;50.40;;;;;;7381872;19;20406;-77
2022/08/12 13:32:28;;;;;;;1.60;1.50;;;36.70;49.80;;;;;;7380579;19;20304;-77
2022/08/12 13:34:57;;;;;;;1.50;1.40;;;35.30;49.10;;;;;;7380444;19;20309;-77
2022/08/12 13:37:26;;;;;;;1.40;1.30;;;35.10;51.10;;;;;;7379872;19;20317;-77
2022/08/12 13:39:52;;;;;;;1.42;1.35;;;34.70;51.20;;;;;;7381088;19;20339;-78
2022/08/12 13:42:18;;;;;;;3.83;1.30;;;34.10;51.10;;;;;;7382600;19;20313;-77
2022/08/12 13:44:44;;;;;;;1.55;1.45;;;33.60;52.40;;;;;;7381502;19;20384;-77
2022/08/12 13:47:10;;;;;;;1.58;1.40;;;33.70;54.10;;;;;;7382273;19;20428;-77
2022/08/12 13:49:35;;;;;;;1.38;1.20;;;34.00;53.70;;;;;;7381601;19;20423;-77
2022/08/12 13:52:01;;;;;;;1.47;1.37;;;34.50;51.30;;;;;;7382390;19;20308;-77
2022/08/12 13:54:28;;;;;;;1.30;1.20;;;34.60;52.10;;;;;;7382143;19;20361;-77
2022/08/12 13:56:54;;;;;;;1.50;1.40;;;34.60;52.60;;;;;;7380624;19;20333;-77
2022/08/12 13:59:20;;;;;;;1.27;1.27;;;35.30;52.30;;;;;;7381701;19;20801;-77
2022/08/12 14:01:48;;;;;;;1.60;1.50;;;35.90;52.70;;;;;;7380217;19;20312;-76
2022/08/12 14:04:14;;;;;;;2.70;1.50;;;36.70;52.60;;;;;;7380331;19;20336;-77
2022/08/12 14:06:40;;;;;;;1.40;1.30;;;36.50;49.00;;;;;;7380780;19;20336;-77
2022/08/12 14:09:06;;;;;;;1.40;1.30;;;36.80;49.30;;;;;;7380641;19;20336;-77
2022/08/12 14:11:31;;;;;;;1.42;1.35;;;36.90;50.10;;;;;;7383503;19;20440;-77
2022/08/12 14:13:59;;;;;;;1.50;1.40;;;36.50;49.10;;;;;;7379612;19;20353;-78
2022/08/12 14:16:24;;;;;;;1.30;1.30;;;35.50;49.70;;;;;;7380587;19;20320;-77
2022/08/12 14:18:50;;;;;;;1.20;1.20;;;35.30;49.70;;;;;;7380957;19;20332;-77
2022/08/12 14:21:16;;;;;;;2.43;1.30;;;35.30;49.10;;;;;;7380449;19;20915;-77
2022/08/12 14:23:43;;;;;;;2.27;1.47;;;35.50;50.20;;;;;;7378704;19;20309;-77
2022/08/12 14:26:10;;;;;;;1.40;1.30;;;35.30;49.30;;;;;;7378453;19;20317;-77
2022/08/12 14:28:36;;;;;;;1.27;1.27;;;35.60;49.20;;;;;;7379915;19;20300;-76
2022/08/12 14:31:06;;;;;;;2.03;1.58;;;35.90;49.50;;;;;;7378667;19;20853;-76
2022/08/12 14:33:46;;;;;;;1.50;1.40;;;36.00;48.30;;;;;;7378233;19;20329;-77
2022/08/12 14:36:13;;;;;;;3.15;1.30;;;36.20;47.70;;;;;;7278869;19;2004445;-77
2022/08/12 14:38:40;;;;;;;1.60;1.50;;;36.60;47.80;;;;;;7378046;19;20351;-77
2022/08/12 14:41:07;;;;;;;1.40;1.30;;;36.70;47.00;;;;;;7380718;19;20312;-77
2022/08/12 14:43:34;;;;;;;2.60;1.50;;;36.70;47.20;;;;;;7380008;19;20328;-77